Time;durP1;ratioP1;P1;durP2;ratioP2;P2;SDS_P1;SDS_P2;PMS_P1;PMS_P2;Temp;Humidity;BMP_temperature;BMP_pressure;BME280_temperature;BME280_humidity;BME280_pressure;Samples;Min_cycle;Max_cycle;Signal;HPM_P1;HPM_P2
2023/06/02 00:01:02;;;;;;;;;;;11.30;99.90;;;;;;5091563;28;19928;-85
2023/06/02 00:03:30;;;;;;;;;;;11.30;99.90;;;;;;5092494;28;19935;-84
2023/06/02 00:05:59;;;;;;;;;;;11.30;99.90;;;;;;5093636;28;19931;-84
2023/06/02 00:08:28;;;;;;;;;;;11.10;99.90;;;;;;5078958;28;19934;-85
2023/06/02 00:10:54;;;;;;;;;;;11.10;99.90;;;;;;5096779;28;19932;-85
2023/06/02 00:13:20;;;;;;;;;;;11.00;99.90;;;;;;5093514;28;19943;-83
2023/06/02 00:15:46;;;;;;;;;;;11.00;99.90;;;;;;5088627;28;20178;-84
2023/06/02 00:18:11;;;;;;;;;;;11.00;99.90;;;;;;5093089;28;19960;-84
2023/06/02 00:20:37;;;;;;;;;;;11.00;99.90;;;;;;5092556;28;20339;-86
2023/06/02 00:23:03;;;;;;;;;;;11.00;99.90;;;;;;5092779;28;20030;-84
2023/06/02 00:25:32;;;;;;;;;;;11.00;99.90;;;;;;5072409;28;20026;-84
2023/06/02 00:27:57;;;;;;;;;;;11.10;99.90;;;;;;5080593;28;19927;-84
2023/06/02 00:30:23;;;;;;;;;;;11.00;99.90;;;;;;5086946;28;19995;-84
2023/06/02 00:32:49;;;;;;;;;;;11.00;99.90;;;;;;5087166;28;19931;-84
2023/06/02 00:35:14;;;;;;;;;;;11.10;99.90;;;;;;5070943;28;19932;-84
2023/06/02 00:37:40;;;;;;;;;;;11.10;99.90;;;;;;5096382;28;19992;-84
2023/06/02 00:40:06;;;;;;;;;;;11.20;99.90;;;;;;5089521;28;20558;-84
2023/06/02 00:42:32;;;;;;;;;;;11.20;99.90;;;;;;5084577;28;19931;-83
2023/06/02 00:44:58;;;;;;;;;;;11.10;99.90;;;;;;5092926;28;19928;-83
2023/06/02 00:47:23;;;;;;;;;;;11.10;99.90;;;;;;5084465;28;19928;-83
2023/06/02 00:49:51;;;;;;;;;;;11.10;99.90;;;;;;5092387;28;21296;-83
2023/06/02 00:52:18;;;;;;;;;;;11.20;99.90;;;;;;5088253;28;19931;-85
2023/06/02 00:54:44;;;;;;;;;;;11.10;99.90;;;;;;5076513;28;19934;-85
2023/06/02 00:57:09;;;;;;;;;;;11.10;99.90;;;;;;5090702;28;19932;-84
2023/06/02 00:59:36;;;;;;;;;;;10.90;99.90;;;;;;5090492;28;19924;-84
2023/06/02 01:02:02;;;;;;;;;;;10.90;99.90;;;;;;5091160;28;20015;-85
2023/06/02 01:04:30;;;;;;;;;;;11.00;99.90;;;;;;5095220;28;19927;-84
2023/06/02 01:06:56;;;;;;;;;;;11.00;99.90;;;;;;5098088;28;19928;-86
2023/06/02 01:09:22;;;;;;;;;;;11.10;99.90;;;;;;5089414;28;19924;-86
2023/06/02 01:11:47;;;;;;;;;;;11.00;99.90;;;;;;5089904;28;20560;-85
2023/06/02 01:14:13;;;;;;;;;;;11.10;99.90;;;;;;5091452;28;20345;-86
2023/06/02 01:16:39;;;;;;;;;;;10.90;99.90;;;;;;5090678;28;19935;-84
2023/06/02 01:19:06;;;;;;;;;;;11.00;99.90;;;;;;5094269;28;19927;-85
2023/06/02 01:21:37;;;;;;;;;;;11.00;99.90;;;;;;5093589;28;19927;-84
2023/06/02 01:24:03;;;;;;;;;;;10.80;99.90;;;;;;5087330;28;19928;-86
2023/06/02 01:26:34;;;;;;;;;;;10.90;99.90;;;;;;5070330;28;19924;-84
2023/06/02 01:29:00;;;;;;;;;;;10.80;99.90;;;;;;5067350;28;19951;-84
2023/06/02 01:31:28;;;;;;;;;;;11.00;99.90;;;;;;5095455;28;20338;-86
2023/06/02 01:34:05;;;;;;;;;;;11.00;99.90;;;;;;5094865;28;19928;-86
2023/06/02 01:36:32;;;;;;;;;;;10.90;99.90;;;;;;5089128;28;20297;-84
2023/06/02 01:38:59;;;;;;;;;;;10.90;99.90;;;;;;5092389;28;19962;-84
2023/06/02 01:41:28;;;;;;;;;;;10.80;99.90;;;;;;5088724;28;19959;-85
2023/06/02 01:43:55;;;;;;;;;;;10.70;99.90;;;;;;5098913;28;20313;-85
2023/06/02 01:46:20;;;;;;;;;;;10.80;99.90;;;;;;5076393;28;20308;-84
2023/06/02 01:48:46;;;;;;;;;;;10.80;99.90;;;;;;5083341;28;19924;-84
2023/06/02 01:51:11;;;;;;;;;;;10.80;99.90;;;;;;5097332;28;19950;-84
2023/06/02 01:53:37;;;;;;;;;;;11.00;99.90;;;;;;5089473;28;19954;-85
2023/06/02 01:56:03;;;;;;;;;;;10.90;99.90;;;;;;5092758;28;19928;-84
2023/06/02 01:58:28;;;;;;;;;;;10.90;99.90;;;;;;5092594;28;19924;-84
2023/06/02 02:00:54;;;;;;;;;;;10.90;99.90;;;;;;5085369;28;19928;-85
2023/06/02 02:03:22;;;;;;;;;;;10.90;99.90;;;;;;5099054;28;19924;-84
2023/06/02 02:05:47;;;;;;;;;;;10.80;99.90;;;;;;5081378;28;19980;-85
2023/06/02 02:08:13;;;;;;;;;;;10.90;99.90;;;;;;5095915;28;19928;-84
2023/06/02 02:10:38;;;;;;;;;;;10.80;99.90;;;;;;5092590;28;19950;-85
2023/06/02 02:13:04;;;;;;;;;;;11.00;99.90;;;;;;5092503;28;19935;-84
2023/06/02 02:15:30;;;;;;;;;;;10.90;99.90;;;;;;5097558;28;20761;-84
2023/06/02 02:17:56;;;;;;;;;;;10.90;99.90;;;;;;5096280;28;19981;-84
2023/06/02 02:20:22;;;;;;;;;;;10.90;99.90;;;;;;5093077;28;19927;-85
2023/06/02 02:22:48;;;;;;;;;;;10.90;99.90;;;;;;5098132;28;19931;-85
2023/06/02 02:25:15;;;;;;;;;;;10.80;99.90;;;;;;5091603;28;20045;-84
2023/06/02 02:27:41;;;;;;;;;;;10.90;99.90;;;;;;5095494;28;19928;-85
2023/06/02 02:30:07;;;;;;;;;;;10.90;99.90;;;;;;5091954;28;19932;-85
2023/06/02 02:32:34;;;;;;;;;;;10.90;99.90;;;;;;5093286;28;19928;-85
2023/06/02 02:35:00;;;;;;;;;;;10.90;99.90;;;;;;5092815;28;20508;-85
2023/06/02 02:37:27;;;;;;;;;;;10.90;99.90;;;;;;5088714;28;19924;-84
2023/06/02 02:39:52;;;;;;;;;;;10.90;99.90;;;;;;5095620;28;19932;-85
2023/06/02 02:42:18;;;;;;;;;;;10.90;99.90;;;;;;5079893;28;20016;-85
2023/06/02 02:44:43;;;;;;;;;;;10.90;99.90;;;;;;5093115;28;19932;-85
2023/06/02 02:47:09;;;;;;;;;;;11.00;99.90;;;;;;5096384;28;19927;-85
2023/06/02 02:49:35;;;;;;;;;;;10.90;99.90;;;;;;5076123;28;20019;-85
2023/06/02 02:52:02;;;;;;;;;;;11.00;99.90;;;;;;5095648;28;19931;-85
2023/06/02 02:54:27;;;;;;;;;;;11.00;99.90;;;;;;5081015;28;19932;-84
2023/06/02 02:56:53;;;;;;;;;;;11.00;99.90;;;;;;5090946;28;19932;-85
2023/06/02 02:59:19;;;;;;;;;;;11.00;99.90;;;;;;5091541;28;20019;-84
2023/06/02 03:01:47;;;;;;;;;;;11.00;99.90;;;;;;5092194;28;19924;-85
2023/06/02 03:04:21;;;;;;;;;;;11.00;99.90;;;;;;5099188;28;19950;-85
2023/06/02 03:06:52;;;;;;;;;;;11.00;99.90;;;;;;5088806;28;20521;-86
2023/06/02 03:09:18;;;;;;;;;;;10.90;99.90;;;;;;5095336;28;19981;-85
2023/06/02 03:11:45;;;;;;;;;;;10.90;99.90;;;;;;5095526;28;19932;-84
2023/06/02 03:14:11;;;;;;;;;;;11.00;99.90;;;;;;5093906;28;19931;-85
2023/06/02 03:16:40;;;;;;;;;;;10.90;99.90;;;;;;5093641;28;19938;-85
2023/06/02 03:19:06;;;;;;;;;;;10.90;99.90;;;;;;5089971;28;20007;-85
2023/06/02 03:21:41;;;;;;;;;;;10.90;99.90;;;;;;5090104;28;19935;-85
2023/06/02 03:24:09;;;;;;;;;;;10.90;99.90;;;;;;5095880;28;19935;-85
2023/06/02 03:26:35;;;;;;;;;;;10.90;99.90;;;;;;5095468;28;20407;-85
2023/06/02 03:29:01;;;;;;;;;;;10.90;99.90;;;;;;5089033;28;19925;-85
2023/06/02 03:31:28;;;;;;;;;;;10.90;99.90;;;;;;5094093;28;19972;-85
2023/06/02 03:33:54;;;;;;;;;;;10.90;99.90;;;;;;5096777;28;19974;-83
2023/06/02 03:36:19;;;;;;;;;;;10.90;99.90;;;;;;5097651;28;20385;-85
2023/06/02 03:38:45;;;;;;;;;;;11.00;99.90;;;;;;5077758;28;20845;-86
2023/06/02 03:41:10;;;;;;;;;;;11.00;99.90;;;;;;5098351;28;20639;-85
2023/06/02 03:43:36;;;;;;;;;;;11.00;99.90;;;;;;5095427;28;19928;-85
2023/06/02 03:46:02;;;;;;;;;;;10.90;99.90;;;;;;5094736;28;19931;-85
2023/06/02 03:48:27;;;;;;;;;;;10.90;99.90;;;;;;5078081;28;20022;-84
2023/06/02 03:50:53;;;;;;;;;;;11.10;99.90;;;;;;5102174;28;19985;-85
2023/06/02 03:53:19;;;;;;;;;;;11.00;99.90;;;;;;5095472;28;19931;-85
2023/06/02 03:55:44;;;;;;;;;;;11.00;99.90;;;;;;5083746;28;19935;-85
2023/06/02 03:58:12;;;;;;;;;;;11.00;99.90;;;;;;5078832;28;19923;-86
2023/06/02 04:00:38;;;;;;;;;;;11.10;99.90;;;;;;5095742;28;19923;-86
2023/06/02 04:03:04;;;;;;;;;;;11.10;99.90;;;;;;5087769;28;19932;-86
2023/06/02 04:05:30;;;;;;;;;;;11.10;99.90;;;;;;5073239;28;19939;-86
2023/06/02 04:07:56;;;;;;;;;;;11.20;99.90;;;;;;5092620;28;19924;-86
2023/06/02 04:10:22;;;;;;;;;;;11.10;99.90;;;;;;5097546;28;19984;-86
2023/06/02 04:12:47;;;;;;;;;;;11.20;99.90;;;;;;5078016;28;19930;-86
2023/06/02 04:15:13;;;;;;;;;;;11.20;99.90;;;;;;5098251;28;19984;-85
2023/06/02 04:17:38;;;;;;;;;;;11.20;99.90;;;;;;5093160;28;19936;-84
2023/06/02 04:20:04;;;;;;;;;;;11.20;99.90;;;;;;5089957;28;19934;-85
2023/06/02 04:22:30;;;;;;;;;;;11.20;99.90;;;;;;5097187;28;20778;-84
2023/06/02 04:24:55;;;;;;;;;;;11.20;99.90;;;;;;5096944;28;19955;-85
2023/06/02 04:27:21;;;;;;;;;;;11.20;99.90;;;;;;5092560;28;19934;-85
2023/06/02 04:29:46;;;;;;;;;;;11.20;99.90;;;;;;5099627;28;19928;-81
2023/06/02 04:32:12;;;;;;;;;;;11.30;99.90;;;;;;5090832;28;19975;-84
2023/06/02 04:34:37;;;;;;;;;;;11.30;99.90;;;;;;5091073;28;19936;-85
2023/06/02 04:37:03;;;;;;;;;;;11.30;99.90;;;;;;5076292;28;19967;-85
2023/06/02 04:39:29;;;;;;;;;;;11.20;99.90;;;;;;5093593;28;19927;-86
2023/06/02 04:41:57;;;;;;;;;;;11.20;99.90;;;;;;5094049;28;20007;-85
2023/06/02 04:44:23;;;;;;;;;;;11.20;99.90;;;;;;5089883;28;20363;-85
2023/06/02 04:46:49;;;;;;;;;;;11.30;99.90;;;;;;5069073;28;20718;-85
2023/06/02 04:49:15;;;;;;;;;;;11.30;99.90;;;;;;5089394;28;19963;-84
2023/06/02 04:51:41;;;;;;;;;;;11.30;99.90;;;;;;5072072;28;19927;-84
2023/06/02 04:54:07;;;;;;;;;;;11.40;99.90;;;;;;5093217;28;20389;-85
2023/06/02 04:56:34;;;;;;;;;;;11.40;99.90;;;;;;5071633;28;19944;-86
2023/06/02 04:58:59;;;;;;;;;;;11.40;99.90;;;;;;5093559;28;20373;-85
2023/06/02 05:01:26;;;;;;;;;;;11.50;99.90;;;;;;5087814;28;19927;-83
2023/06/02 05:03:53;;;;;;;;;;;11.50;99.90;;;;;;5092284;28;19955;-84
2023/06/02 05:06:18;;;;;;;;;;;11.50;99.90;;;;;;5082806;28;20380;-83
2023/06/02 05:08:44;;;;;;;;;;;11.60;99.90;;;;;;5077913;28;19985;-84
2023/06/02 05:11:09;;;;;;;;;;;11.60;99.90;;;;;;5072832;28;20397;-85
2023/06/02 05:13:35;;;;;;;;;;;11.60;99.90;;;;;;5089574;28;19924;-84
2023/06/02 05:16:02;;;;;;;;;;;11.70;99.90;;;;;;5091470;28;19974;-85
2023/06/02 05:18:28;;;;;;;;;;;11.80;99.90;;;;;;5090561;28;20359;-85
2023/06/02 05:20:54;;;;;;;;;;;11.90;99.90;;;;;;5092163;28;20595;-85
2023/06/02 05:23:19;;;;;;;;;;;11.90;99.90;;;;;;5090180;28;19970;-85
2023/06/02 05:25:47;;;;;;;;;;;11.80;99.90;;;;;;5096168;28;20491;-85
2023/06/02 05:28:13;;;;;;;;;;;11.90;99.90;;;;;;5090195;28;19928;-84
2023/06/02 05:30:38;;;;;;;;;;;12.00;99.90;;;;;;5087766;28;19952;-85
2023/06/02 05:33:05;;;;;;;;;;;12.10;99.90;;;;;;5091694;28;19938;-85
2023/06/02 05:35:30;;;;;;;;;;;12.20;99.90;;;;;;5093261;28;19928;-84
2023/06/02 05:37:56;;;;;;;;;;;12.20;99.90;;;;;;5095356;28;19936;-83
2023/06/02 05:40:21;;;;;;;;;;;12.20;99.90;;;;;;5094238;28;20280;-85
2023/06/02 05:42:47;;;;;;;;;;;12.30;99.90;;;;;;5084963;28;20142;-85
2023/06/02 05:45:12;;;;;;;;;;;12.40;99.90;;;;;;5095560;28;19928;-84
2023/06/02 05:47:38;;;;;;;;;;;12.30;99.90;;;;;;5083404;28;19973;-85
2023/06/02 05:50:04;;;;;;;;;;;12.40;99.90;;;;;;5092544;28;20030;-83
2023/06/02 05:52:30;;;;;;;;;;;12.40;99.90;;;;;;5089136;28;20031;-86
2023/06/02 05:54:55;;;;;;;;;;;12.50;99.90;;;;;;5093341;28;19927;-85
2023/06/02 05:57:21;;;;;;;;;;;12.50;99.90;;;;;;5095096;28;19927;-85
2023/06/02 05:59:46;;;;;;;;;;;12.50;99.90;;;;;;5092080;28;19928;-85
2023/06/02 06:02:12;;;;;;;;;;;12.60;99.90;;;;;;5089355;28;19932;-84
2023/06/02 06:04:38;;;;;;;;;;;12.50;99.90;;;;;;5086870;28;19939;-86
2023/06/02 06:07:03;;;;;;;;;;;12.50;99.90;;;;;;5091103;28;19981;-84
2023/06/02 06:09:29;;;;;;;;;;;12.50;99.90;;;;;;5085293;28;19934;-85
2023/06/02 06:11:54;;;;;;;;;;;12.50;99.90;;;;;;5081513;28;19935;-85
2023/06/02 06:14:20;;;;;;;;;;;12.70;99.90;;;;;;5082308;28;19928;-85
2023/06/02 06:16:45;;;;;;;;;;;12.70;99.90;;;;;;5080563;28;19924;-84
2023/06/02 06:19:11;;;;;;;;;;;12.60;99.90;;;;;;5094639;28;19966;-85
2023/06/02 06:21:37;;;;;;;;;;;12.70;99.90;;;;;;5095774;28;19932;-84
2023/06/02 06:24:03;;;;;;;;;;;12.80;99.90;;;;;;5094487;28;20148;-85
2023/06/02 06:26:29;;;;;;;;;;;12.70;99.90;;;;;;5077798;28;19928;-84
2023/06/02 06:28:54;;;;;;;;;;;12.80;99.90;;;;;;5098811;28;19938;-85
2023/06/02 06:31:20;;;;;;;;;;;12.90;99.90;;;;;;5098777;28;20018;-84
2023/06/02 06:33:46;;;;;;;;;;;12.80;99.90;;;;;;5097566;28;19924;-85
2023/06/02 06:36:12;;;;;;;;;;;12.70;99.90;;;;;;5098242;28;19923;-85
2023/06/02 06:38:38;;;;;;;;;;;12.90;99.90;;;;;;5097036;28;19951;-85
2023/06/02 06:41:04;;;;;;;;;;;12.80;99.90;;;;;;5096508;28;20424;-85
2023/06/02 06:43:29;;;;;;;;;;;12.80;99.90;;;;;;5096362;28;19963;-86
2023/06/02 06:45:55;;;;;;;;;;;13.00;99.90;;;;;;5098706;28;20533;-86
2023/06/02 06:48:20;;;;;;;;;;;13.00;99.90;;;;;;5098589;28;20658;-84
2023/06/02 06:50:47;;;;;;;;;;;13.10;99.90;;;;;;5105340;28;20009;-86
2023/06/02 06:53:12;;;;;;;;;;;13.10;99.90;;;;;;5102899;28;20394;-85
2023/06/02 06:55:38;;;;;;;;;;;13.20;99.90;;;;;;5101130;28;19958;-86
2023/06/02 06:58:03;;;;;;;;;;;13.30;99.90;;;;;;5084130;28;19928;-85
2023/06/02 07:00:30;;;;;;;;;;;13.30;99.90;;;;;;5103970;28;20404;-85
2023/06/02 07:02:55;;;;;;;;;;;13.40;99.90;;;;;;5102418;28;20408;-86
2023/06/02 07:05:21;;;;;;;;;;;13.40;99.90;;;;;;5103175;28;19934;-84
2023/06/02 07:07:47;;;;;;;;;;;13.50;99.90;;;;;;5085795;28;20369;-85
2023/06/02 07:10:14;;;;;;;;;;;13.50;99.90;;;;;;5102588;28;19928;-84
2023/06/02 07:12:39;;;;;;;;;;;13.70;99.90;;;;;;5101855;28;19928;-84
2023/06/02 07:15:05;;;;;;;;;;;13.60;99.90;;;;;;5103062;28;20395;-84
2023/06/02 07:17:31;;;;;;;;;;;13.60;99.90;;;;;;5102114;28;19972;-84
2023/06/02 07:19:56;;;;;;;;;;;13.70;99.90;;;;;;5102870;28;20452;-85
2023/06/02 07:22:22;;;;;;;;;;;13.80;99.90;;;;;;5100410;28;19924;-84
2023/06/02 07:24:47;;;;;;;;;;;13.90;99.90;;;;;;5082601;28;20343;-85
2023/06/02 07:27:13;;;;;;;;;;;13.90;99.90;;;;;;5101266;28;19935;-86
2023/06/02 07:29:39;;;;;;;;;;;13.80;99.90;;;;;;5103661;28;19938;-85
2023/06/02 07:32:05;;;;;;;;;;;13.70;99.90;;;;;;5100352;28;19989;-85
2023/06/02 07:34:30;;;;;;;;;;;13.90;99.90;;;;;;5102352;28;19934;-84
2023/06/02 07:36:56;;;;;;;;;;;13.90;99.90;;;;;;5102350;28;19924;-85
2023/06/02 07:39:22;;;;;;;;;;;14.00;99.90;;;;;;5101953;28;19924;-85
2023/06/02 07:41:47;;;;;;;;;;;14.00;99.90;;;;;;5098594;28;19924;-86
2023/06/02 07:44:14;;;;;;;;;;;14.10;99.90;;;;;;5101782;28;20018;-86
2023/06/02 07:46:40;;;;;;;;;;;14.30;99.90;;;;;;5100713;28;19973;-86
2023/06/02 07:49:05;;;;;;;;;;;14.20;99.90;;;;;;5101230;28;19932;-84
2023/06/02 07:51:31;;;;;;;;;;;14.30;99.90;;;;;;5101870;28;20381;-85
2023/06/02 07:53:56;;;;;;;;;;;14.20;99.90;;;;;;5098919;28;20010;-85
2023/06/02 07:56:22;;;;;;;;;;;14.30;99.90;;;;;;5101335;28;19934;-85
2023/06/02 07:58:48;;;;;;;;;;;14.30;99.90;;;;;;5099867;28;20067;-85
2023/06/02 08:01:13;;;;;;;;;;;14.50;99.90;;;;;;5099421;28;19927;-83
2023/06/02 08:03:42;;;;;;;;;;;14.60;99.90;;;;;;5090030;28;20460;-85
2023/06/02 08:06:07;;;;;;;;;;;14.50;99.90;;;;;;5087849;28;19946;-85
2023/06/02 08:08:36;;;;;;;;;;;14.60;99.90;;;;;;5086409;28;19928;-86
2023/06/02 08:11:01;;;;;;;;;;;14.70;99.90;;;;;;5085580;28;19936;-86
2023/06/02 08:13:27;;;;;;;;;;;14.50;99.90;;;;;;5099030;28;19928;-85
2023/06/02 08:15:53;;;;;;;;;;;14.30;99.90;;;;;;5097198;28;19958;-86
2023/06/02 08:18:18;;;;;;;;;;;14.40;99.90;;;;;;5083097;28;19928;-86
2023/06/02 08:20:45;;;;;;;;;;;14.50;99.90;;;;;;5097398;28;19947;-86
2023/06/02 08:23:10;;;;;;;;;;;14.50;99.90;;;;;;5102709;28;19930;-85
2023/06/02 08:25:39;;;;;;;;;;;14.40;99.90;;;;;;5099232;28;19927;-86
2023/06/02 08:28:07;;;;;;;;;;;14.60;99.90;;;;;;5092218;28;19928;-84
2023/06/02 08:30:36;;;;;;;;;;;14.90;99.90;;;;;;5097413;28;20026;-86
2023/06/02 08:33:03;;;;;;;;;;;14.70;99.90;;;;;;5099512;28;19924;-87
2023/06/02 08:35:40;;;;;;;;;;;14.70;99.90;;;;;;5097376;28;19937;-84
2023/06/02 08:38:09;;;;;;;;;;;15.00;99.90;;;;;;5097135;28;19936;-86
2023/06/02 08:40:36;;;;;;;;;;;15.20;99.90;;;;;;5098920;28;20471;-85
2023/06/02 08:43:06;;;;;;;;;;;15.30;99.90;;;;;;5099761;28;20014;-86
2023/06/02 08:45:32;;;;;;;;;;;14.90;99.90;;;;;;5098130;28;20394;-85
2023/06/02 08:47:58;;;;;;;;;;;15.30;99.90;;;;;;5101119;28;19924;-86
2023/06/02 08:50:28;;;;;;;;;;;15.30;99.90;;;;;;5100868;28;19992;-85
2023/06/02 08:52:57;;;;;;;;;;;15.70;99.90;;;;;;5100540;28;19964;-88
2023/06/02 08:55:23;;;;;;;;;;;15.90;99.90;;;;;;5096153;28;19934;-85
2023/06/02 08:57:49;;;;;;;;;;;16.00;99.90;;;;;;5082728;28;19972;-85
2023/06/02 09:00:15;;;;;;;;;;;16.20;99.90;;;;;;5101486;28;19977;-86
2023/06/02 09:02:41;;;;;;;;;;;16.80;99.90;;;;;;5097914;28;19975;-87
2023/06/02 09:05:09;;;;;;;;;;;17.70;99.90;;;;;;5098925;28;19927;-86
2023/06/02 09:07:35;;;;;;;;;;;18.10;99.90;;;;;;5080770;28;19932;-87
2023/06/02 09:10:02;;;;;;;;;;;18.60;99.90;;;;;;5099792;28;20026;-87
2023/06/02 09:12:28;;;;;;;;;;;19.20;99.90;;;;;;5100400;28;19970;-87
2023/06/02 09:15:08;;;;;;;;;;;19.20;99.90;;;;;;5101090;28;19932;-85
2023/06/02 09:17:33;;;;;;;;;;;18.60;99.90;;;;;;5098211;28;19932;-87
2023/06/02 09:20:06;;;;;;;;;;;18.70;99.90;;;;;;5099396;28;19935;-86
2023/06/02 09:22:32;;;;;;;;;;;18.40;99.90;;;;;;5081182;28;20277;-86
2023/06/02 09:24:58;;;;;;;;;;;18.70;99.90;;;;;;5083952;28;19928;-87
2023/06/02 09:27:25;;;;;;;;;;;18.30;99.90;;;;;;5080856;28;19935;-88
2023/06/02 09:29:58;;;;;;;;;;;18.50;99.90;;;;;;5098158;28;20032;-86
2023/06/02 09:32:23;;;;;;;;;;;18.70;99.90;;;;;;5099593;28;20351;-90
2023/06/02 09:34:49;;;;;;;;;;;18.80;99.90;;;;;;5078800;28;19935;-89
2023/06/02 09:37:15;;;;;;;;;;;19.00;99.90;;;;;;5099942;28;20238;-86
2023/06/02 09:39:42;;;;;;;;;;;18.80;99.90;;;;;;5078289;28;19931;-86
2023/06/02 09:42:08;;;;;;;;;;;19.00;99.90;;;;;;5100337;28;19928;-85
2023/06/02 09:44:33;;;;;;;;;;;19.90;99.90;;;;;;5099063;28;19938;-88
2023/06/02 09:47:03;;;;;;;;;;;19.40;99.90;;;;;;5103824;28;20021;-88
2023/06/02 09:49:39;;;;;;;;;;;20.30;99.90;;;;;;5081541;28;19985;-86
2023/06/02 09:52:12;;;;;;;;;;;20.00;99.90;;;;;;5098497;28;19986;-86
2023/06/02 09:54:37;;;;;;;;;;;20.60;99.90;;;;;;5098705;28;20564;-87
2023/06/02 09:57:03;;;;;;;;;;;20.70;99.90;;;;;;5097795;28;20081;-88
2023/06/02 09:59:29;;;;;;;;;;;20.80;99.90;;;;;;5099860;28;19928;-87
2023/06/02 10:01:55;;;;;;;;;;;19.70;99.90;;;;;;5100038;28;20008;-87
2023/06/02 10:04:20;;;;;;;;;;;20.50;99.90;;;;;;5101851;28;19924;-88
2023/06/02 10:07:13;;;;;;;;;;;21.00;99.90;;;;;;5101772;28;19924;-89
2023/06/02 10:09:54;;;;;;;;;;;21.70;99.90;;;;;;5095278;28;19924;-89
2023/06/02 10:12:19;;;;;;;;;;;22.10;99.90;;;;;;5092602;28;19931;-88
2023/06/02 10:15:05;;;;;;;;;;;22.70;99.90;;;;;;5078383;28;19928;-84
2023/06/02 10:17:34;;;;;;;;;;;23.00;99.90;;;;;;5088753;28;19928;-85
2023/06/02 10:20:08;;;;;;;;;;;21.90;99.90;;;;;;5099450;28;19931;-91
2023/06/02 10:22:45;;;;;;;;;;;20.40;99.90;;;;;;5097751;28;20456;-89
2023/06/02 10:25:30;;;;;;;;;;;21.30;99.90;;;;;;5100697;28;19936;-89
2023/06/02 10:27:57;;;;;;;;;;;20.30;99.90;;;;;;5087877;28;20648;-87
2023/06/02 10:30:24;;;;;;;;;;;19.00;99.90;;;;;;5097461;28;19928;-90
2023/06/02 10:32:50;;;;;;;;;;;19.20;99.90;;;;;;5070483;28;19931;-87
2023/06/02 10:35:16;;;;;;;;;;;19.80;99.90;;;;;;5091405;28;19981;-87
2023/06/02 10:37:43;;;;;;;;;;;20.20;99.90;;;;;;5109991;27;21047;-88
2023/06/02 10:40:10;;;;;;;;;;;20.30;99.90;;;;;;5085553;28;19931;-89
2023/06/02 10:42:36;;;;;;;;;;;19.70;99.90;;;;;;5095020;28;19928;-87
2023/06/02 10:45:17;;;;;;;;;;;20.90;99.90;;;;;;5092508;28;20102;-86
2023/06/02 10:47:43;;;;;;;;;;;21.80;99.90;;;;;;5091933;28;20096;-88
2023/06/02 10:50:10;;;;;;;;;;;22.00;99.90;;;;;;5088324;28;20050;-89
2023/06/02 10:52:54;;;;;;;;;;;21.30;99.90;;;;;;5072378;28;20007;-88
2023/06/02 10:55:20;;;;;;;;;;;21.40;99.90;;;;;;5086151;28;19927;-85
2023/06/02 10:57:53;;;;;;;;;;;21.40;99.90;;;;;;5080293;28;20282;-86
2023/06/02 11:00:35;;;;;;;;;;;21.40;99.90;;;;;;5087889;28;20342;-89
2023/06/02 11:03:17;;;;;;;;;;;20.60;99.90;;;;;;5085202;28;19928;-90
2023/06/02 11:05:43;;;;;;;;;;;20.80;99.90;;;;;;5070845;28;19928;-89
2023/06/02 11:08:12;;;;;;;;;;;20.70;99.90;;;;;;5091135;28;19966;-89
2023/06/02 11:10:47;;;;;;;;;;;20.70;99.90;;;;;;5091273;28;19927;-87
2023/06/02 11:13:13;;;;;;;;;;;20.30;99.90;;;;;;5084614;28;19924;-92
2023/06/02 11:16:00;;;;;;;;;;;19.80;99.90;;;;;;5065352;28;19928;-90
2023/06/02 11:18:27;;;;;;;;;;;20.20;99.90;;;;;;5076079;28;19934;-89
2023/06/02 11:20:54;;;;;;;;;;;20.00;99.90;;;;;;5075544;28;20061;-90
2023/06/02 11:23:20;;;;;;;;;;;19.60;99.90;;;;;;5078173;28;19928;-94
2023/06/02 11:25:46;;;;;;;;;;;19.70;99.90;;;;;;5075252;28;19924;-90
2023/06/02 11:28:17;;;;;;;;;;;19.30;99.90;;;;;;5078886;28;19924;-93
2023/06/02 11:30:42;;;;;;;;;;;19.70;99.90;;;;;;5092608;28;20312;-88
2023/06/02 11:33:08;;;;;;;;;;;19.80;99.90;;;;;;5073669;28;19928;-90
2023/06/02 11:35:34;;;;;;;;;;;19.80;99.90;;;;;;5081537;28;19959;-89
2023/06/02 11:38:11;;;;;;;;;;;19.80;99.90;;;;;;5091233;28;19925;-90
2023/06/02 11:40:37;;;;;;;;;;;20.30;99.90;;;;;;5088895;28;19928;-87
2023/06/02 11:43:03;;;;;;;;;;;20.30;99.90;;;;;;5075224;28;19983;-87
2023/06/02 11:45:29;;;;;;;;;;;21.20;99.90;;;;;;5095654;28;19932;-88
2023/06/02 11:47:59;;;;;;;;;;;21.70;99.90;;;;;;5076741;28;19968;-87
2023/06/02 11:50:25;;;;;;;;;;;21.30;99.90;;;;;;5089011;28;19928;-88
2023/06/02 11:52:50;;;;;;;;;;;21.30;99.90;;;;;;5093581;28;19935;-88
2023/06/02 11:55:16;;;;;;;;;;;21.40;99.90;;;;;;5092024;28;19978;-86
2023/06/02 11:57:43;;;;;;;;;;;21.50;99.90;;;;;;5090886;28;19966;-85
2023/06/02 12:00:10;;;;;;;;;;;21.30;99.90;;;;;;5094713;28;20609;-87
2023/06/02 12:02:39;;;;;;;;;;;21.00;99.90;;;;;;5092914;28;19928;-88
2023/06/02 12:05:09;;;;;;;;;;;21.20;99.90;;;;;;5087353;28;19932;-89
2023/06/02 12:07:35;;;;;;;;;;;20.70;99.90;;;;;;5067307;28;19935;-90
2023/06/02 12:10:03;;;;;;;;;;;21.20;99.90;;;;;;5070371;28;19935;-88
2023/06/02 12:12:30;;;;;;;;;;;21.10;99.90;;;;;;5090128;28;19928;-87
2023/06/02 12:14:55;;;;;;;;;;;21.10;99.90;;;;;;5074827;28;20366;-84
2023/06/02 12:17:21;;;;;;;;;;;21.00;99.90;;;;;;5081151;28;19934;-88
2023/06/02 12:19:57;;;;;;;;;;;21.40;99.90;;;;;;5090501;28;20015;-88
2023/06/02 12:22:22;;;;;;;;;;;22.00;99.90;;;;;;5103457;27;20351;-88
2023/06/02 12:24:48;;;;;;;;;;;22.00;99.90;;;;;;5078546;28;19955;-88
2023/06/02 12:27:20;;;;;;;;;;;21.70;99.90;;;;;;5088064;28;19950;-92
2023/06/02 12:29:46;;;;;;;;;;;22.70;99.90;;;;;;5063326;28;20034;-86
2023/06/02 12:32:11;;;;;;;;;;;23.80;99.90;;;;;;5076133;28;20055;-87
2023/06/02 12:34:40;;;;;;;;;;;22.60;98.60;;;;;;5074698;28;19959;-85
2023/06/02 12:37:05;;;;;;;;;;;22.10;99.20;;;;;;5086472;28;19928;-84
2023/06/02 12:39:33;;;;;;;;;;;21.20;99.20;;;;;;5085782;28;19935;-89
2023/06/02 12:41:59;;;;;;;;;;;20.50;99.90;;;;;;5087651;28;19943;-90
2023/06/02 12:44:26;;;;;;;;;;;20.80;99.90;;;;;;5074323;28;19932;-89
2023/06/02 12:46:53;;;;;;;;;;;20.80;99.90;;;;;;5090205;28;19928;-90
2023/06/02 12:49:19;;;;;;;;;;;21.00;99.90;;;;;;5071986;28;19932;-89
2023/06/02 12:51:45;;;;;;;;;;;21.00;99.90;;;;;;5090331;28;20007;-88
2023/06/02 12:54:10;;;;;;;;;;;21.50;99.90;;;;;;5075327;28;19924;-88
2023/06/02 12:56:36;;;;;;;;;;;22.50;99.90;;;;;;5085104;28;19928;-87
2023/06/02 12:59:03;;;;;;;;;;;23.40;99.90;;;;;;5080387;28;20288;-87
2023/06/02 13:01:29;;;;;;;;;;;24.00;99.90;;;;;;5082289;28;19977;-89
2023/06/02 13:03:55;;;;;;;;;;;23.50;99.90;;;;;;5083031;28;19928;-89
2023/06/02 13:06:22;;;;;;;;;;;22.60;99.20;;;;;;5083457;28;19924;-92
2023/06/02 13:08:48;;;;;;;;;;;22.00;99.60;;;;;;5097981;28;19928;-89
2023/06/02 13:11:13;;;;;;;;;;;22.30;99.90;;;;;;5097795;28;20343;-89
2023/06/02 13:13:40;;;;;;;;;;;22.00;99.40;;;;;;5100113;28;19927;-89
2023/06/02 13:16:05;;;;;;;;;;;21.80;99.90;;;;;;5082249;28;20373;-87
2023/06/02 13:18:31;;;;;;;;;;;22.00;99.90;;;;;;5096961;28;19924;-88
2023/06/02 13:20:57;;;;;;;;;;;21.60;99.90;;;;;;5095901;28;19927;-90
2023/06/02 13:23:22;;;;;;;;;;;21.10;97.30;;;;;;5086808;28;19945;-90
2023/06/02 13:25:48;;;;;;;;;;;21.40;99.90;;;;;;5077274;28;19969;-89
2023/06/02 13:28:14;;;;;;;;;;;22.20;99.90;;;;;;5098294;28;19935;-88
2023/06/02 13:30:39;;;;;;;;;;;22.60;99.20;;;;;;5097302;28;20376;-90
2023/06/02 13:33:05;;;;;;;;;;;23.60;99.90;;;;;;5095779;28;19924;-91
2023/06/02 13:35:31;;;;;;;;;;;23.80;98.70;;;;;;5076665;28;19928;-90
2023/06/02 13:37:56;;;;;;;;;;;23.70;96.70;;;;;;5081773;28;19924;-85
2023/06/02 13:40:22;;;;;;;;;;;22.50;95.00;;;;;;5094453;28;19971;-89
2023/06/02 13:42:47;;;;;;;;;;;22.80;96.70;;;;;;5079842;28;20286;-87
2023/06/02 13:45:13;;;;;;;;;;;21.60;95.70;;;;;;5076981;28;19924;-89
2023/06/02 13:47:38;;;;;;;;;;;21.40;96.60;;;;;;5087168;28;19990;-88
2023/06/02 13:50:05;;;;;;;;;;;21.70;97.70;;;;;;5064942;28;19932;-87
2023/06/02 13:52:30;;;;;;;;;;;22.40;95.70;;;;;;5090309;28;19927;-88
2023/06/02 13:54:57;;;;;;;;;;;22.20;94.60;;;;;;5087698;28;20031;-87
2023/06/02 13:57:22;;;;;;;;;;;23.20;95.80;;;;;;5082691;28;20057;-85
2023/06/02 13:59:48;;;;;;;;;;;23.00;92.90;;;;;;5076129;28;20413;-88
2023/06/02 14:02:13;;;;;;;;;;;23.20;95.10;;;;;;5060297;28;20350;-86
2023/06/02 14:04:41;;;;;;;;;;;23.10;92.10;;;;;;5071823;28;19951;-85
2023/06/02 14:07:07;;;;;;;;;;;24.00;95.40;;;;;;5076945;28;19932;-83
2023/06/02 14:09:32;;;;;;;;;;;24.60;94.20;;;;;;5066920;28;20001;-87
2023/06/02 14:11:58;;;;;;;;;;;24.90;94.40;;;;;;5085427;28;19945;-84
2023/06/02 14:14:23;;;;;;;;;;;24.30;90.50;;;;;;5089787;28;19927;-86